Time;durP1;ratioP1;P1;durP2;ratioP2;P2;SDS_P1;SDS_P2;PMS_P1;PMS_P2;Temp;Humidity;BMP_temperature;BMP_pressure;BME280_temperature;BME280_humidity;BME280_pressure;Samples;Min_cycle;Max_cycle;Signal;HPM_P1;HPM_P2
2023/05/29 00:10:22;;;;;;;6.32;2.97;;;11.30;99.90;;;;;;2611614;54;20085;31
2023/05/29 00:18:36;;;;;;;4.93;2.53;;;11.20;99.90;;;;;;2603392;54;20029;31
2023/05/29 00:21:13;;;;;;;5.13;3.63;;;11.10;99.90;;;;;;2603243;54;20031;31
2023/05/29 00:23:54;;;;;;;5.27;3.23;;;11.10;99.90;;;;;;2603581;54;20038;31
2023/05/29 00:26:56;;;;;;;6.90;3.45;;;11.00;99.90;;;;;;2603291;54;20125;31
2023/05/29 00:29:40;;;;;;;6.75;3.90;;;11.00;99.90;;;;;;2602984;54;20049;31
2023/05/29 00:32:27;;;;;;;7.60;2.70;;;10.90;99.90;;;;;;2603114;54;20034;31
2023/05/29 00:35:17;;;;;;;6.82;3.30;;;10.90;99.90;;;;;;2603120;54;20031;31
2023/05/29 00:38:10;;;;;;;6.25;2.90;;;10.80;99.90;;;;;;2603255;54;20032;31
2023/05/29 00:40:49;;;;;;;7.80;4.00;;;10.80;99.90;;;;;;2603051;54;20875;31
2023/05/29 00:43:27;;;;;;;9.43;4.03;;;10.80;99.90;;;;;;2603149;54;20246;31
2023/05/29 00:46:14;;;;;;;8.43;3.70;;;10.70;99.90;;;;;;2602545;54;20034;31
2023/05/29 00:48:55;;;;;;;5.03;3.47;;;10.60;99.90;;;;;;2621064;46;20038;31
2023/05/29 00:51:33;;;;;;;7.93;3.20;;;10.60;99.90;;;;;;2602487;54;20085;31
2023/05/29 00:54:17;;;;;;;7.15;3.20;;;10.60;99.90;;;;;;2602565;54;22444;31
2023/05/29 00:56:59;;;;;;;9.02;3.10;;;10.50;99.90;;;;;;2700441;39;21625;31
2023/05/29 00:59:46;;;;;;;6.40;3.10;;;10.50;99.90;;;;;;2602588;54;20022;31
2023/05/29 01:02:30;;;;;;;4.97;2.88;;;10.50;99.90;;;;;;2602461;54;25037;31
2023/05/29 01:05:14;;;;;;;7.43;4.38;;;10.40;99.90;;;;;;2603156;54;20000;31
2023/05/29 01:08:03;;;;;;;5.18;3.15;;;10.30;99.90;;;;;;2621151;46;20054;31
2023/05/29 01:10:42;;;;;;;5.38;3.30;;;10.30;99.90;;;;;;2603089;54;20882;31
2023/05/29 01:13:35;;;;;;;14.25;4.60;;;10.20;99.90;;;;;;2772899;31;21525;31
2023/05/29 01:22:27;;;;;;;10.35;4.03;;;10.00;99.90;;;;;;2602986;54;20023;31
2023/05/29 01:25:15;;;;;;;6.30;3.28;;;10.00;99.90;;;;;;2701609;39;21485;31
2023/05/29 01:28:10;;;;;;;6.03;3.88;;;9.90;99.90;;;;;;2772980;31;21519;31
2023/05/29 01:31:06;;;;;;;6.88;3.92;;;9.90;99.90;;;;;;2602799;54;20929;31
2023/05/29 01:34:00;;;;;;;8.35;4.60;;;9.80;99.90;;;;;;2602909;54;20608;31
2023/05/29 01:37:14;;;;;;;5.70;3.22;;;9.80;99.90;;;;;;2603098;54;20034;31
2023/05/29 01:40:19;;;;;;;7.05;3.88;;;9.80;99.90;;;;;;2603130;54;20845;31
2023/05/29 01:43:16;;;;;;;7.80;3.58;;;9.80;99.90;;;;;;2603969;54;20026;31
2023/05/29 01:46:02;;;;;;;7.43;4.77;;;9.70;99.90;;;;;;2603576;54;20026;31
2023/05/29 01:48:47;;;;;;;5.55;3.42;;;9.70;99.90;;;;;;2603852;54;20234;31
2023/05/29 01:51:35;;;;;;;6.57;4.10;;;9.60;99.90;;;;;;2604001;54;20105;31
2023/05/29 01:54:13;;;;;;;6.22;4.22;;;9.60;99.90;;;;;;2603793;54;20792;31
2023/05/29 01:59:49;;;;;;;8.90;4.45;;;9.50;99.90;;;;;;2603843;54;20789;31
2023/05/29 02:02:28;;;;;;;8.20;4.07;;;9.50;99.90;;;;;;2603850;54;20038;31
2023/05/29 02:05:05;;;;;;;9.00;4.07;;;9.40;99.90;;;;;;2622328;46;20033;31
2023/05/29 02:07:46;;;;;;;7.55;3.92;;;9.40;99.90;;;;;;2602988;54;20030;31
2023/05/29 02:10:24;;;;;;;7.30;3.30;;;9.40;99.90;;;;;;2602907;54;20048;31
2023/05/29 02:13:06;;;;;;;6.82;4.05;;;9.40;99.90;;;;;;2603695;54;20770;31
2023/05/29 02:15:53;;;;;;;9.23;4.20;;;9.40;99.90;;;;;;2603554;54;21286;31
2023/05/29 02:18:30;;;;;;;6.40;3.40;;;9.40;99.90;;;;;;2603596;54;20029;31
2023/05/29 02:21:27;;;;;;;7.97;3.88;;;9.40;99.90;;;;;;2603678;54;20913;31
2023/05/29 02:24:05;;;;;;;6.68;3.70;;;9.30;99.90;;;;;;2603643;54;20889;31
2023/05/29 02:26:42;;;;;;;8.98;3.97;;;9.30;99.90;;;;;;2602823;54;20140;31
2023/05/29 02:29:18;;;;;;;6.63;3.15;;;9.20;99.90;;;;;;2603582;54;20161;31
2023/05/29 02:31:55;;;;;;;5.47;3.53;;;9.20;99.90;;;;;;2603556;54;20026;31
2023/05/29 02:34:38;;;;;;;5.53;3.42;;;9.20;99.90;;;;;;2603859;54;20030;31
2023/05/29 02:37:25;;;;;;;7.45;3.90;;;9.20;99.90;;;;;;2603720;54;20027;31
2023/05/29 02:40:03;;;;;;;7.30;3.80;;;9.20;99.90;;;;;;2702383;39;20416;31
2023/05/29 02:42:39;;;;;;;9.32;3.90;;;9.10;99.90;;;;;;2603833;54;20034;31
2023/05/29 02:45:18;;;;;;;7.93;4.63;;;9.10;99.90;;;;;;2603858;54;20050;31
2023/05/29 02:47:54;;;;;;;6.13;3.40;;;9.10;99.90;;;;;;2603710;54;20046;31
2023/05/29 02:53:12;;;;;;;5.45;2.97;;;9.00;99.90;;;;;;2632755;54;19922;-93
2023/05/29 02:55:52;;;;;;;7.00;3.45;;;9.00;99.90;;;;;;2951562;46;20011;-92
2023/05/29 02:58:38;;;;;;;6.65;4.70;;;9.00;99.90;;;;;;2602947;54;20917;31
2023/05/29 03:01:26;;;;;;;6.60;3.65;;;8.90;99.90;;;;;;2603733;54;20042;31
2023/05/29 03:04:05;;;;;;;7.47;4.13;;;8.80;99.90;;;;;;2603740;54;20033;31
2023/05/29 03:06:54;;;;;;;7.57;4.40;;;8.80;99.90;;;;;;2603569;54;20764;31
2023/05/29 03:09:35;;;;;;;5.72;3.38;;;8.80;99.90;;;;;;2603709;54;20054;31
2023/05/29 03:12:16;;;;;;;8.05;4.45;;;8.80;99.90;;;;;;2603521;54;20103;31
2023/05/29 03:15:05;;;;;;;6.47;4.03;;;8.80;99.90;;;;;;2610577;46;20034;31
2023/05/29 03:17:47;;;;;;;7.45;4.55;;;8.80;99.90;;;;;;2602868;54;20437;31
2023/05/29 03:20:36;;;;;;;6.72;3.88;;;8.80;99.90;;;;;;2773371;31;20906;31
2023/05/29 03:23:28;;;;;;;4.70;3.15;;;8.80;99.90;;;;;;2701977;39;21585;31
2023/05/29 03:26:13;;;;;;;6.20;3.30;;;8.80;99.90;;;;;;2602790;54;19941;31
2023/05/29 03:29:05;;;;;;;5.68;3.42;;;8.90;99.90;;;;;;2621948;46;20052;31
2023/05/29 03:32:18;;;;;;;5.40;3.40;;;9.00;99.90;;;;;;2603452;54;20027;31
2023/05/29 04:57:30;;;;;;;12.05;4.25;;;14.50;99.90;;;;;;2602667;54;20034;31
2023/05/29 05:03:26;;;;;;;5.25;3.30;;;15.10;99.90;;;;;;2603131;54;20026;31
2023/05/29 05:18:37;;;;;;;5.90;2.60;;;16.40;99.90;;;;;;2603110;54;20128;31
2023/05/29 05:21:47;;;;;;;8.77;3.22;;;16.70;99.90;;;;;;2621536;46;20042;31
2023/05/29 05:24:39;;;;;;;11.85;2.90;;;17.00;99.90;;;;;;2603261;54;20068;31
2023/05/29 05:27:16;;;;;;;;;;;17.30;99.90;;;;;;2621564;47;20975;31
2023/05/29 05:30:03;;;;;;;5.82;3.08;;;17.60;99.90;;;;;;2603073;54;19960;31
2023/05/29 05:32:51;;;;;;;5.35;3.10;;;17.90;99.90;;;;;;2603070;54;20553;31
2023/05/29 05:35:36;;;;;;;6.00;2.60;;;18.10;99.90;;;;;;2603035;54;20061;31
2023/05/29 05:38:15;;;;;;;5.28;2.67;;;18.30;99.90;;;;;;2602742;54;20022;31
2023/05/29 05:47:24;;;;;;;9.90;2.80;;;19.00;99.90;;;;;;2701610;39;20589;31
2023/05/29 06:15:00;;;;;;;6.57;2.33;;;21.20;99.90;;;;;;2600225;54;20030;31
2023/05/29 06:17:43;;;;;;;3.60;2.20;;;21.60;99.90;;;;;;2602667;54;20883;31
2023/05/29 06:20:27;;;;;;;14.07;2.38;;;21.90;99.90;;;;;;2603019;54;20238;31
2023/05/29 06:23:09;;;;;;;5.00;2.20;;;22.10;99.90;;;;;;2621118;47;20026;31
2023/05/29 06:25:49;;;;;;;3.97;2.05;;;22.30;99.90;;;;;;2602985;54;20033;31
2023/05/29 06:28:27;;;;;;;6.15;2.30;;;22.50;99.90;;;;;;2603588;54;20106;31
2023/05/29 06:31:26;;;;;;;10.67;2.50;;;22.70;99.90;;;;;;2603899;54;20030;31
2023/05/29 06:34:14;;;;;;;3.95;1.60;;;22.70;99.90;;;;;;2603918;54;20027;31
2023/05/29 06:36:53;;;;;;;9.45;2.45;;;23.10;99.90;;;;;;2603606;54;20034;31
2023/05/29 06:39:30;;;;;;;8.80;2.35;;;23.30;99.90;;;;;;2702048;39;20603;31
2023/05/29 08:23:21;;;;;;;3.30;1.40;;;28.90;64.80;;;;;;2601105;54;20010;31
2023/05/29 08:47:06;;;;;;;6.60;1.35;;;28.90;63.90;;;;;;2603402;54;20808;31
2023/05/29 09:15:06;;;;;;;5.83;1.50;;;29.60;61.30;;;;;;2600931;54;20022;31
2023/05/29 09:30:46;;;;;;;3.80;1.50;;;29.70;61.20;;;;;;2602538;54;20064;31
2023/05/29 09:33:40;;;;;;;13.47;1.87;;;29.70;60.40;;;;;;2602889;54;20030;31
2023/05/29 09:51:09;;;;;;;6.35;1.60;;;29.20;59.70;;;;;;2602149;54;20837;31
2023/05/29 09:54:50;;;;;;;3.72;1.75;;;29.20;62.50;;;;;;2603107;54;20914;31
2023/05/29 09:57:28;;;;;;;5.60;1.60;;;29.10;62.40;;;;;;2620903;47;20043;31
2023/05/29 10:03:24;;;;;;;;;;;29.20;62.10;;;;;;2604195;54;20018;31
2023/05/29 10:06:24;;;;;;;6.20;2.00;;;29.30;60.30;;;;;;2774368;31;20481;31
2023/05/29 10:09:22;;;;;;;4.75;2.25;;;29.30;62.30;;;;;;2603879;54;20593;31
2023/05/29 10:15:57;;;;;;;;;;;;;;;;;;;;;
2023/05/29 10:22:21;;;;;;;4.90;1.70;;;28.90;61.50;;;;;;2603973;54;20849;31
2023/05/29 10:46:39;;;;;;;4.03;1.60;;;28.70;60.70;;;;;;2603986;54;20026;31
2023/05/29 11:26:01;;;;;;;6.43;2.20;;;27.90;62.20;;;;;;2600273;54;20042;31
2023/05/29 11:28:54;;;;;;;7.37;2.63;;;27.90;63.90;;;;;;2602979;54;20247;31
2023/05/29 11:34:22;;;;;;;6.10;2.30;;;27.90;64.20;;;;;;2603578;54;21213;31
2023/05/29 11:37:04;;;;;;;3.20;2.00;;;27.90;64.10;;;;;;2606644;46;20026;31
2023/05/29 11:39:42;;;;;;;7.05;2.00;;;27.90;62.60;;;;;;2603338;54;21115;31
2023/05/29 11:42:22;;;;;;;6.80;1.92;;;27.80;61.20;;;;;;2603348;54;20878;31
2023/05/29 12:00:24;;;;;;;3.42;1.95;;;27.80;63.10;;;;;;2601875;54;20859;31
2023/05/29 12:03:29;;;;;;;5.25;2.30;;;27.70;62.60;;;;;;2602684;54;20911;31
2023/05/29 12:06:17;;;;;;;4.35;1.60;;;27.70;61.80;;;;;;2602014;54;20046;31
2023/05/29 12:09:27;;;;;;;5.10;1.95;;;27.70;64.20;;;;;;2620935;46;20042;31
2023/05/29 12:15:04;;;;;;;4.45;2.42;;;27.60;62.40;;;;;;2600930;54;20960;31
2023/05/29 12:30:14;;;;;;;6.13;1.83;;;27.60;61.50;;;;;;2602928;54;20288;31
2023/05/29 12:33:15;;;;;;;5.30;1.95;;;27.50;62.80;;;;;;2603344;54;20048;31
2023/05/29 12:35:57;;;;;;;7.25;1.77;;;27.50;61.60;;;;;;2603520;54;20947;31
2023/05/29 12:38:44;;;;;;;4.20;2.10;;;27.50;62.40;;;;;;2603229;54;20030;31
2023/05/29 12:44:19;;;;;;;4.65;1.65;;;27.40;61.60;;;;;;2602550;54;20788;31
2023/05/29 12:50:07;;;;;;;3.53;1.90;;;27.30;63.20;;;;;;2603468;54;20034;31
2023/05/29 12:56:01;;;;;;;5.30;1.70;;;27.30;61.60;;;;;;2602558;54;20026;31
2023/05/29 12:58:48;;;;;;;3.38;1.80;;;27.30;63.30;;;;;;2602518;54;20855;31
2023/05/29 13:04:33;;;;;;;3.78;1.75;;;27.10;63.10;;;;;;2600376;54;20026;31
2023/05/29 13:07:13;;;;;;;4.30;2.10;;;27.00;63.10;;;;;;2603190;54;20038;31
2023/05/29 13:13:30;;;;;;;4.68;2.08;;;26.90;61.60;;;;;;2605697;46;20018;31
2023/05/29 13:19:35;;;;;;;5.25;2.00;;;26.60;64.40;;;;;;2603217;54;20766;31
2023/05/29 13:22:16;;;;;;;5.82;1.98;;;26.50;63.50;;;;;;2603159;54;20053;31
2023/05/29 13:24:58;;;;;;;5.53;1.70;;;26.40;62.10;;;;;;2621270;46;20030;31
2023/05/29 13:27:38;;;;;;;4.35;2.00;;;26.50;61.20;;;;;;2603196;54;20923;31
2023/05/29 13:30:17;;;;;;;6.50;1.90;;;26.30;60.20;;;;;;2621502;47;20023;31
2023/05/29 13:32:53;;;;;;;3.90;1.60;;;26.30;60.90;;;;;;2603091;54;20042;31
2023/05/29 13:35:32;;;;;;;4.25;1.90;;;26.20;61.90;;;;;;2603273;54;20769;31
2023/05/29 13:38:09;;;;;;;11.97;1.97;;;26.10;61.30;;;;;;2603896;54;20093;31
2023/05/29 13:40:52;;;;;;;4.00;1.90;;;26.00;62.40;;;;;;2603910;54;20980;31
2023/05/29 13:43:31;;;;;;;4.57;1.70;;;26.00;61.30;;;;;;2702458;39;21411;31
2023/05/29 13:46:19;;;;;;;4.15;1.63;;;25.90;61.40;;;;;;2603786;54;20031;31
2023/05/29 13:48:56;;;;;;;3.10;1.50;;;25.90;61.90;;;;;;2603758;54;20145;31
2023/05/29 13:51:37;;;;;;;5.78;1.77;;;25.80;61.20;;;;;;2773534;31;20612;31
2023/05/29 13:54:12;;;;;;;5.53;2.00;;;25.90;61.90;;;;;;2622399;46;20715;31
2023/05/29 13:56:47;;;;;;;3.97;1.60;;;25.80;64.00;;;;;;2603631;54;20031;31
2023/05/29 13:59:22;;;;;;;6.95;1.52;;;25.80;64.00;;;;;;2603786;54;20539;31
2023/05/29 14:02:03;;;;;;;3.15;2.08;;;25.80;63.30;;;;;;2603664;54;20026;31
2023/05/29 14:04:42;;;;;;;7.57;1.80;;;25.80;64.40;;;;;;2603916;54;21280;31
2023/05/29 14:07:21;;;;;;;15.40;2.45;;;25.80;64.60;;;;;;2622091;46;20034;31
2023/05/29 14:09:55;;;;;;;4.30;1.83;;;25.80;66.10;;;;;;2773598;31;21617;31
2023/05/29 14:12:31;;;;;;;6.88;2.13;;;25.70;64.40;;;;;;2603848;54;20042;31
2023/05/29 14:15:09;;;;;;;4.97;2.28;;;25.70;66.30;;;;;;2603619;54;20935;31
2023/05/29 14:17:44;;;;;;;6.15;2.20;;;25.70;65.10;;;;;;2603719;54;20045;31
2023/05/29 14:20:19;;;;;;;4.53;1.95;;;25.80;65.50;;;;;;2701959;39;20479;31
2023/05/29 14:22:59;;;;;;;12.45;1.95;;;25.70;64.40;;;;;;2603717;54;20049;31
2023/05/29 14:25:34;;;;;;;4.15;1.80;;;25.50;64.60;;;;;;2603852;54;20037;31
2023/05/29 14:28:10;;;;;;;5.50;2.00;;;25.40;65.10;;;;;;2603664;54;20026;31
2023/05/29 14:43:57;;;;;;;8.10;2.03;;;25.20;66.90;;;;;;2603649;54;20026;31
2023/05/29 14:49:12;;;;;;;6.85;2.20;;;25.00;66.20;;;;;;2602951;54;20027;31
2023/05/29 14:51:50;;;;;;;4.50;2.13;;;25.00;66.10;;;;;;2603619;54;20023;31
2023/05/29 14:54:29;;;;;;;8.68;3.13;;;24.90;67.70;;;;;;2608148;46;20025;31
2023/05/29 14:57:23;;;;;;;6.25;2.45;;;24.80;67.30;;;;;;2621802;46;20026;31
2023/05/29 15:00:01;;;;;;;8.30;2.40;;;24.90;68.50;;;;;;2701984;39;20481;31
2023/05/29 15:02:39;;;;;;;7.97;2.30;;;24.80;68.20;;;;;;2607382;46;20955;31
2023/05/29 15:05:21;;;;;;;4.10;2.40;;;24.90;67.10;;;;;;2603539;54;20160;31
2023/05/29 15:08:02;;;;;;;3.67;2.25;;;24.90;67.50;;;;;;2603264;54;20112;31
2023/05/29 15:10:36;;;;;;;5.20;2.50;;;24.90;67.20;;;;;;2603537;54;20131;31
2023/05/29 15:13:24;;;;;;;8.88;2.95;;;24.90;67.30;;;;;;2603420;54;25024;31
2023/05/29 15:16:03;;;;;;;5.03;2.60;;;24.90;68.20;;;;;;2622266;46;20098;31
2023/05/29 15:18:45;;;;;;;23.65;2.67;;;24.90;67.60;;;;;;2603366;54;20553;31
2023/05/29 15:21:24;;;;;;;22.85;4.40;;;24.80;68.20;;;;;;2603379;54;20101;31
2023/05/29 15:24:35;;;;;;;;;;;;;;;;;;;;;
2023/05/29 15:33:15;;;;;;;6.45;2.63;;;24.70;69.00;;;;;;2607370;46;20029;31
2023/05/29 15:36:21;;;;;;;18.23;3.25;;;24.70;68.30;;;;;;2603534;54;20569;31
2023/05/29 15:39:08;;;;;;;7.90;3.00;;;24.60;68.90;;;;;;2618545;46;20108;31
2023/05/29 15:41:56;;;;;;;6.82;3.30;;;24.50;68.80;;;;;;2620420;46;20870;31
2023/05/29 15:44:57;;;;;;;4.25;2.70;;;24.50;71.00;;;;;;2603325;54;21139;31
2023/05/29 15:47:35;;;;;;;4.38;2.63;;;24.50;70.00;;;;;;2603648;54;20046;31
2023/05/29 15:53:02;;;;;;;6.45;2.72;;;24.50;69.50;;;;;;2603426;54;20679;31
2023/05/29 15:55:44;;;;;;;7.22;2.90;;;24.50;69.80;;;;;;2603300;54;20858;31
2023/05/29 16:01:13;;;;;;;5.65;3.28;;;24.30;69.50;;;;;;2603344;54;19934;31
2023/05/29 16:03:55;;;;;;;6.97;3.20;;;24.10;71.00;;;;;;2701818;39;20438;31
2023/05/29 16:06:36;;;;;;;6.90;3.00;;;24.00;71.40;;;;;;2604885;46;20164;31
2023/05/29 16:09:23;;;;;;;4.65;2.20;;;24.00;71.00;;;;;;2603085;54;20659;31
2023/05/29 16:12:06;;;;;;;4.95;2.85;;;23.80;70.90;;;;;;2603382;54;20128;31
2023/05/29 16:14:40;;;;;;;6.88;2.72;;;23.80;71.50;;;;;;2619221;46;20019;31
2023/05/29 16:17:15;;;;;;;5.70;2.83;;;23.80;71.50;;;;;;2603377;54;20558;31
2023/05/29 16:19:54;;;;;;;6.28;2.95;;;23.70;71.50;;;;;;2603274;54;20748;31
2023/05/29 16:22:31;;;;;;;4.35;3.05;;;23.70;71.80;;;;;;2603243;54;20577;31
2023/05/29 16:25:19;;;;;;;7.32;2.90;;;23.70;72.20;;;;;;2603429;54;20030;31
2023/05/29 16:27:54;;;;;;;15.57;2.78;;;23.60;71.00;;;;;;2603058;54;20031;31
2023/05/29 16:30:29;;;;;;;9.27;3.17;;;23.60;71.80;;;;;;2621787;46;20030;31
2023/05/29 16:33:05;;;;;;;5.13;2.93;;;23.50;71.60;;;;;;2602827;54;20877;31
2023/05/29 16:35:40;;;;;;;6.20;2.65;;;23.50;72.90;;;;;;2603187;54;20607;31
2023/05/29 16:38:12;;;;;;;7.47;2.70;;;23.40;73.20;;;;;;2951151;46;19999;-94
2023/05/29 16:40:49;;;;;;;9.35;3.10;;;23.30;73.70;;;;;;2617228;46;20033;31
2023/05/29 16:43:32;;;;;;;8.18;3.08;;;23.20;73.80;;;;;;2615228;46;20018;31
2023/05/29 16:46:06;;;;;;;7.00;2.88;;;23.10;73.90;;;;;;2602975;54;20089;31
2023/05/29 16:48:52;;;;;;;5.07;2.70;;;23.10;74.40;;;;;;2603178;54;20887;31
2023/05/29 16:51:25;;;;;;;15.40;3.85;;;23.10;75.30;;;;;;2621353;46;20885;31
2023/05/29 16:54:01;;;;;;;7.07;3.03;;;23.00;75.60;;;;;;2620884;46;20892;31
2023/05/29 16:56:42;;;;;;;5.00;3.42;;;23.00;75.90;;;;;;2603076;54;20092;31
2023/05/29 16:59:21;;;;;;;13.20;4.50;;;23.00;75.80;;;;;;2603416;54;20026;31
2023/05/29 17:02:00;;;;;;;9.15;3.03;;;23.00;76.30;;;;;;2621497;46;20027;31
2023/05/29 17:04:37;;;;;;;27.40;4.65;;;22.90;76.80;;;;;;2621640;46;20081;31
2023/05/29 17:07:18;;;;;;;9.45;3.00;;;22.90;76.00;;;;;;2603192;54;20898;31
2023/05/29 17:09:56;;;;;;;9.52;4.03;;;23.00;76.50;;;;;;2602964;54;20027;31
2023/05/29 17:12:38;;;;;;;5.35;2.90;;;22.90;77.50;;;;;;2719864;39;21610;31
2023/05/29 17:15:14;;;;;;;8.00;3.70;;;22.80;77.40;;;;;;2603344;54;20023;31
2023/05/29 17:17:56;;;;;;;9.00;3.00;;;22.80;77.60;;;;;;2603078;54;20030;31
2023/05/29 17:20:35;;;;;;;6.27;3.00;;;22.70;78.50;;;;;;2604871;46;20066;31
2023/05/29 17:23:13;;;;;;;7.13;3.15;;;22.70;78.40;;;;;;2612790;46;20030;31
2023/05/29 17:25:50;;;;;;;6.65;3.33;;;22.60;78.20;;;;;;2603007;54;20774;31
2023/05/29 17:28:28;;;;;;;13.50;3.15;;;22.60;79.20;;;;;;2701627;39;21580;31
2023/05/29 17:34:13;;;;;;;7.43;3.05;;;22.50;79.20;;;;;;2603336;54;20049;31
2023/05/29 17:37:00;;;;;;;7.65;3.00;;;22.50;79.80;;;;;;2603076;54;20049;31
2023/05/29 17:39:42;;;;;;;6.93;3.67;;;22.40;79.60;;;;;;2602964;54;20049;31
2023/05/29 17:45:28;;;;;;;7.57;3.00;;;22.30;79.30;;;;;;2602499;54;20766;31
2023/05/29 17:48:09;;;;;;;6.93;3.20;;;22.30;80.10;;;;;;2602004;54;20770;31
2023/05/29 17:51:03;;;;;;;12.10;2.90;;;22.10;80.10;;;;;;2621661;47;20762;31
2023/05/29 17:53:48;;;;;;;6.72;3.20;;;22.10;81.20;;;;;;2603193;54;20919;31
2023/05/29 17:59:24;;;;;;;5.32;3.00;;;21.90;82.50;;;;;;2602905;54;20920;31
2023/05/29 18:02:01;;;;;;;6.32;3.50;;;21.80;82.00;;;;;;2603057;54;20038;31
2023/05/29 18:04:48;;;;;;;7.80;3.75;;;21.80;82.70;;;;;;2621441;47;20034;31
2023/05/29 18:07:25;;;;;;;7.95;3.22;;;21.60;83.50;;;;;;2701546;39;20512;31
2023/05/29 18:10:33;;;;;;;8.80;3.75;;;21.60;84.60;;;;;;2602740;54;20085;31
2023/05/29 18:13:17;;;;;;;7.10;3.40;;;21.50;84.40;;;;;;2602929;54;20033;31
2023/05/29 18:16:08;;;;;;;6.32;3.20;;;21.40;85.00;;;;;;2602849;54;20847;31
2023/05/29 18:18:47;;;;;;;22.58;4.45;;;21.40;85.20;;;;;;2603074;54;20027;31
2023/05/29 18:21:30;;;;;;;10.77;3.20;;;21.20;87.70;;;;;;2603060;54;20538;31
2023/05/29 18:26:57;;;;;;;5.57;3.53;;;21.00;86.10;;;;;;2603697;54;21226;31
2023/05/29 18:29:43;;;;;;;9.00;3.30;;;21.00;87.00;;;;;;2603628;54;20031;31
2023/05/29 18:32:19;;;;;;;6.40;3.25;;;20.90;87.00;;;;;;2603831;54;20034;31
2023/05/29 18:35:00;;;;;;;9.30;3.60;;;20.80;87.80;;;;;;2603213;54;20085;31
2023/05/29 18:37:40;;;;;;;12.65;3.55;;;20.70;88.20;;;;;;2602773;54;20786;31
2023/05/29 18:40:22;;;;;;;10.70;3.53;;;20.60;90.90;;;;;;2603531;54;20022;31
2023/05/29 18:43:00;;;;;;;9.38;3.25;;;20.50;89.70;;;;;;2603781;54;20060;31
2023/05/29 18:45:44;;;;;;;7.83;3.43;;;20.40;89.90;;;;;;2603558;54;20116;31
2023/05/29 18:48:21;;;;;;;9.25;3.33;;;20.30;90.30;;;;;;2622069;46;20030;31
2023/05/29 18:51:01;;;;;;;5.50;3.20;;;20.30;90.50;;;;;;2602848;54;20025;31
2023/05/29 18:56:30;;;;;;;5.73;3.33;;;20.20;90.90;;;;;;2602855;54;20093;31
2023/05/29 18:59:06;;;;;;;6.67;3.37;;;20.10;91.30;;;;;;2603855;54;20031;31
2023/05/29 19:01:48;;;;;;;6.35;3.22;;;20.10;91.60;;;;;;2603630;54;20084;31
2023/05/29 19:04:25;;;;;;;4.75;3.13;;;20.00;91.90;;;;;;2603348;54;20911;31
2023/05/29 19:07:09;;;;;;;9.82;3.22;;;19.90;92.10;;;;;;2602907;54;20913;31
2023/05/29 19:09:47;;;;;;;15.50;4.20;;;19.90;92.40;;;;;;2603559;54;20088;31
2023/05/29 19:12:32;;;;;;;8.70;3.63;;;20.00;99.60;;;;;;2701264;39;21655;31
2023/05/29 19:15:36;;;;;;;7.97;3.72;;;20.00;98.40;;;;;;2603601;54;20026;31
2023/05/29 19:18:20;;;;;;;8.73;3.67;;;19.90;97.10;;;;;;2603484;54;20866;31
2023/05/29 19:21:12;;;;;;;5.07;3.28;;;19.90;97.00;;;;;;2621780;46;20048;31
2023/05/29 19:23:51;;;;;;;11.60;3.90;;;19.80;97.20;;;;;;2603479;54;20129;31
2023/05/29 19:32:30;;;;;;;10.20;3.90;;;19.60;97.70;;;;;;2602939;54;20052;31
2023/05/29 19:35:19;;;;;;;8.70;3.70;;;19.50;98.50;;;;;;2602792;54;20124;31
2023/05/29 19:38:02;;;;;;;7.05;3.88;;;19.40;98.60;;;;;;2603646;54;20567;31
2023/05/29 19:40:56;;;;;;;18.75;5.40;;;19.30;99.00;;;;;;2621907;46;20563;31
2023/05/29 19:43:33;;;;;;;27.13;5.50;;;19.40;99.90;;;;;;2603439;54;20893;31
2023/05/29 19:46:09;;;;;;;16.05;4.20;;;19.50;99.90;;;;;;2621762;46;20541;31
2023/05/29 19:48:49;;;;;;;11.70;3.40;;;19.50;99.90;;;;;;2603669;54;20046;31
2023/05/29 19:51:35;;;;;;;11.48;4.22;;;19.50;99.90;;;;;;2614165;46;20053;31
2023/05/29 19:54:19;;;;;;;7.78;3.65;;;19.40;99.90;;;;;;2622080;46;20920;31
2023/05/29 19:59:58;;;;;;;11.15;4.22;;;19.30;99.90;;;;;;2602579;54;20521;31
2023/05/29 20:02:37;;;;;;;8.05;3.53;;;19.20;99.90;;;;;;2602718;54;20022;31
2023/05/29 20:05:17;;;;;;;6.53;3.55;;;19.10;99.90;;;;;;2622041;46;20022;31
2023/05/29 20:08:05;;;;;;;6.30;3.53;;;19.00;99.90;;;;;;2603175;54;21601;31
2023/05/29 20:10:44;;;;;;;7.15;3.40;;;19.00;99.90;;;;;;2603417;54;20899;31
2023/05/29 20:13:30;;;;;;;6.18;3.50;;;18.90;99.90;;;;;;2603385;54;20133;31
2023/05/29 20:16:12;;;;;;;9.23;3.22;;;18.80;99.90;;;;;;2608504;46;20767;31
2023/05/29 20:18:54;;;;;;;6.03;3.45;;;18.80;99.90;;;;;;2603553;54;20573;31
2023/05/29 20:21:33;;;;;;;7.65;3.35;;;18.80;99.90;;;;;;2603127;54;20029;31
2023/05/29 20:24:26;;;;;;;9.35;3.65;;;18.70;99.90;;;;;;2603363;54;20081;31
2023/05/29 20:27:05;;;;;;;6.15;3.30;;;18.60;99.90;;;;;;2603063;54;20800;31
2023/05/29 20:29:43;;;;;;;7.38;3.70;;;18.50;99.90;;;;;;2603185;54;20893;31
2023/05/29 20:32:22;;;;;;;9.40;3.75;;;18.50;99.90;;;;;;2603489;54;20937;31
2023/05/29 20:35:03;;;;;;;5.78;3.25;;;18.40;99.90;;;;;;2603148;54;20845;31
2023/05/29 20:37:51;;;;;;;11.25;3.15;;;18.40;99.90;;;;;;2603226;54;21754;31
2023/05/29 20:40:36;;;;;;;10.93;3.85;;;18.30;99.90;;;;;;2603308;54;20027;31
2023/05/29 20:49:05;;;;;;;7.32;3.78;;;18.10;99.90;;;;;;2602238;54;20042;31
2023/05/29 20:51:44;;;;;;;7.83;3.93;;;18.10;99.90;;;;;;2602551;54;20207;31
2023/05/29 21:00:21;;;;;;;11.45;5.07;;;17.80;99.90;;;;;;2603181;54;20026;31
2023/05/29 21:03:08;;;;;;;8.43;4.90;;;17.70;99.90;;;;;;2621346;46;20917;31
2023/05/29 21:05:46;;;;;;;11.67;4.70;;;17.60;99.90;;;;;;2603350;54;20117;31
2023/05/29 21:11:21;;;;;;;11.98;5.18;;;17.50;99.90;;;;;;2602596;54;19943;31
2023/05/29 21:14:02;;;;;;;7.57;4.65;;;17.30;99.90;;;;;;2602380;54;20939;31
2023/05/29 21:16:44;;;;;;;11.57;5.80;;;17.30;99.90;;;;;;2602450;54;20089;31
2023/05/29 21:19:25;;;;;;;11.70;5.90;;;17.30;99.90;;;;;;2609948;46;20848;31
2023/05/29 21:22:11;;;;;;;8.48;5.22;;;17.20;99.90;;;;;;2621573;46;20810;31
2023/05/29 21:24:52;;;;;;;13.90;5.53;;;17.10;99.90;;;;;;2603292;54;20022;31
2023/05/29 21:27:32;;;;;;;23.23;5.75;;;17.10;99.90;;;;;;2603102;54;20773;31
2023/05/29 21:30:20;;;;;;;9.15;4.90;;;17.10;99.90;;;;;;2603241;54;20108;31
2023/05/29 21:35:40;;;;;;;13.90;6.40;;;17.10;99.90;;;;;;2602962;54;20956;31
2023/05/29 21:38:21;;;;;;;8.35;5.22;;;17.00;99.90;;;;;;2603540;54;20565;31
2023/05/29 21:41:04;;;;;;;8.55;5.57;;;17.00;99.90;;;;;;2701440;39;20552;31
2023/05/29 21:43:42;;;;;;;9.88;4.93;;;17.00;99.90;;;;;;2603189;54;20843;31
2023/05/29 21:46:19;;;;;;;8.55;4.93;;;16.90;99.90;;;;;;2602518;54;20919;31
2023/05/29 21:49:03;;;;;;;6.55;4.90;;;17.00;99.90;;;;;;2602942;54;20046;31
2023/05/29 21:51:44;;;;;;;15.80;5.25;;;16.90;99.90;;;;;;2602942;54;20951;31
2023/05/29 21:57:06;;;;;;;11.15;4.85;;;16.80;99.90;;;;;;2603342;54;20018;31
2023/05/29 21:59:45;;;;;;;9.38;4.85;;;16.80;99.90;;;;;;2603619;54;20031;31
2023/05/29 22:02:32;;;;;;;10.15;4.65;;;16.80;99.90;;;;;;2603558;54;20655;31
2023/05/29 22:07:56;;;;;;;7.18;4.22;;;16.70;99.90;;;;;;2603015;54;20664;31
2023/05/29 22:10:49;;;;;;;7.85;3.90;;;16.70;99.90;;;;;;2603938;54;20026;31
2023/05/29 22:13:35;;;;;;;6.50;3.95;;;16.70;99.90;;;;;;2622009;46;20993;31
2023/05/29 22:16:22;;;;;;;7.10;4.00;;;16.70;99.90;;;;;;2621781;46;20042;31
2023/05/29 22:19:04;;;;;;;6.07;3.50;;;16.60;99.90;;;;;;2702473;39;20532;31
2023/05/29 22:21:43;;;;;;;5.75;3.53;;;16.60;99.90;;;;;;2605180;46;20042;31
2023/05/29 22:24:26;;;;;;;8.60;4.00;;;16.60;99.90;;;;;;2603753;54;20068;31
2023/05/29 22:30:00;;;;;;;8.83;3.73;;;16.50;99.90;;;;;;2602810;54;20045;31
2023/05/29 22:32:41;;;;;;;9.93;4.30;;;16.50;99.90;;;;;;2603860;54;20906;31
2023/05/29 22:35:25;;;;;;;7.97;3.30;;;16.40;99.90;;;;;;2622121;46;20097;31
2023/05/29 22:38:12;;;;;;;8.68;3.53;;;16.40;99.90;;;;;;2622411;46;20049;31
2023/05/29 22:40:56;;;;;;;7.28;3.08;;;16.30;99.90;;;;;;2622050;46;20053;31
2023/05/29 22:43:37;;;;;;;7.18;3.92;;;16.30;99.90;;;;;;2604056;54;20031;31
2023/05/29 22:46:18;;;;;;;6.10;3.40;;;16.30;99.90;;;;;;2603591;54;20876;31
2023/05/29 22:49:00;;;;;;;6.55;3.22;;;16.30;99.90;;;;;;2603041;54;20764;31
2023/05/29 22:51:44;;;;;;;7.28;3.20;;;16.30;99.90;;;;;;2603142;54;20762;31
2023/05/29 22:54:22;;;;;;;7.70;3.30;;;16.20;99.90;;;;;;2606382;46;20031;31
2023/05/29 22:57:10;;;;;;;7.30;4.03;;;16.20;99.90;;;;;;2611698;46;20093;31
2023/05/29 22:59:54;;;;;;;7.85;3.10;;;16.20;99.90;;;;;;2621952;46;20670;31
2023/05/29 23:02:31;;;;;;;5.30;2.90;;;16.20;99.90;;;;;;2621745;46;20056;31
2023/05/29 23:05:10;;;;;;;8.70;2.95;;;16.10;99.90;;;;;;2603515;54;20847;31
2023/05/29 23:07:57;;;;;;;8.70;3.53;;;16.10;99.90;;;;;;2603259;54;20860;31
2023/05/29 23:10:35;;;;;;;6.50;2.53;;;16.10;99.90;;;;;;2603519;54;20026;31
2023/05/29 23:13:13;;;;;;;9.00;3.53;;;16.00;99.90;;;;;;2617835;46;20903;31